sensor_id;sensor_type;location;lat;lon;timestamp;temperature;humidity
36002;DHT22;22070;50.922;5.430;2023-07-20T00:01:14;17.80;99.90
36002;DHT22;22070;50.922;5.430;2023-07-20T00:03:40;17.80;99.90
36002;DHT22;22070;50.922;5.430;2023-07-20T00:06:06;17.80;99.90
36002;DHT22;22070;50.922;5.430;2023-07-20T00:08:32;17.70;99.90
36002;DHT22;22070;50.922;5.430;2023-07-20T00:10:57;17.70;99.90
36002;DHT22;22070;50.922;5.430;2023-07-20T00:13:24;17.70;99.90
36002;DHT22;22070;50.922;5.430;2023-07-20T00:15:50;17.80;99.90
36002;DHT22;22070;50.922;5.430;2023-07-20T00:18:16;17.80;99.90
36002;DHT22;22070;50.922;5.430;2023-07-20T00:20:41;17.70;99.90
36002;DHT22;22070;50.922;5.430;2023-07-20T00:23:07;17.70;99.90
36002;DHT22;22070;50.922;5.430;2023-07-20T00:25:33;17.70;99.90
36002;DHT22;22070;50.922;5.430;2023-07-20T00:27:59;17.60;99.90
36002;DHT22;22070;50.922;5.430;2023-07-20T00:30:24;17.40;99.90
36002;DHT22;22070;50.922;5.430;2023-07-20T00:32:50;17.30;99.90
36002;DHT22;22070;50.922;5.430;2023-07-20T00:35:16;17.30;99.90
36002;DHT22;22070;50.922;5.430;2023-07-20T00:37:42;17.30;99.90
36002;DHT22;22070;50.922;5.430;2023-07-20T00:40:07;17.30;99.90
36002;DHT22;22070;50.922;5.430;2023-07-20T00:42:33;17.20;99.90
36002;DHT22;22070;50.922;5.430;2023-07-20T00:44:59;17.20;99.90
36002;DHT22;22070;50.922;5.430;2023-07-20T00:47:26;17.20;99.90
36002;DHT22;22070;50.922;5.430;2023-07-20T00:49:52;17.20;99.90
36002;DHT22;22070;50.922;5.430;2023-07-20T00:52:20;17.20;99.90
36002;DHT22;22070;50.922;5.430;2023-07-20T00:54:47;17.00;99.90
36002;DHT22;22070;50.922;5.430;2023-07-20T00:57:15;17.10;99.90
36002;DHT22;22070;50.922;5.430;2023-07-20T00:59:41;17.00;99.90
36002;DHT22;22070;50.922;5.430;2023-07-20T01:02:07;16.90;99.90
36002;DHT22;22070;50.922;5.430;2023-07-20T01:04:33;16.90;99.90
36002;DHT22;22070;50.922;5.430;2023-07-20T01:07:32;16.80;99.90
36002;DHT22;22070;50.922;5.430;2023-07-20T01:10:01;16.70;99.90
36002;DHT22;22070;50.922;5.430;2023-07-20T01:12:35;16.70;99.90
36002;DHT22;22070;50.922;5.430;2023-07-20T01:15:05;16.70;99.90
36002;DHT22;22070;50.922;5.430;2023-07-20T01:17:33;16.60;99.90
36002;DHT22;22070;50.922;5.430;2023-07-20T01:19:59;16.70;99.90
36002;DHT22;22070;50.922;5.430;2023-07-20T01:30:46;16.50;99.90
36002;DHT22;22070;50.922;5.430;2023-07-20T01:33:17;16.60;99.90
36002;DHT22;22070;50.922;5.430;2023-07-20T01:35:46;16.60;99.90
36002;DHT22;22070;50.922;5.430;2023-07-20T01:38:13;16.60;99.90
36002;DHT22;22070;50.922;5.430;2023-07-20T01:40:40;16.60;99.90
36002;DHT22;22070;50.922;5.430;2023-07-20T01:43:06;16.60;99.90
36002;DHT22;22070;50.922;5.430;2023-07-20T01:45:31;16.50;99.90
36002;DHT22;22070;50.922;5.430;2023-07-20T01:47:57;16.50;99.90
36002;DHT22;22070;50.922;5.430;2023-07-20T01:50:23;16.50;99.90
36002;DHT22;22070;50.922;5.430;2023-07-20T01:52:48;16.50;99.90
36002;DHT22;22070;50.922;5.430;2023-07-20T01:55:14;16.50;99.90
36002;DHT22;22070;50.922;5.430;2023-07-20T01:57:40;16.50;99.90
36002;DHT22;22070;50.922;5.430;2023-07-20T02:00:06;16.50;99.90
36002;DHT22;22070;50.922;5.430;2023-07-20T02:02:32;16.40;99.90
36002;DHT22;22070;50.922;5.430;2023-07-20T02:04:58;16.50;99.90
36002;DHT22;22070;50.922;5.430;2023-07-20T02:07:23;16.40;99.90
36002;DHT22;22070;50.922;5.430;2023-07-20T02:09:49;16.50;99.90
36002;DHT22;22070;50.922;5.430;2023-07-20T02:12:15;16.60;99.90
36002;DHT22;22070;50.922;5.430;2023-07-20T02:14:40;16.50;99.90
36002;DHT22;22070;50.922;5.430;2023-07-20T02:17:06;16.40;99.90
36002;DHT22;22070;50.922;5.430;2023-07-20T02:19:32;16.40;99.90
36002;DHT22;22070;50.922;5.430;2023-07-20T02:21:57;16.40;99.90
36002;DHT22;22070;50.922;5.430;2023-07-20T02:24:23;16.40;99.90
36002;DHT22;22070;50.922;5.430;2023-07-20T02:26:50;16.40;99.90
36002;DHT22;22070;50.922;5.430;2023-07-20T02:29:16;16.30;99.90
36002;DHT22;22070;50.922;5.430;2023-07-20T02:31:41;16.30;99.90
36002;DHT22;22070;50.922;5.430;2023-07-20T02:34:08;16.30;99.90
36002;DHT22;22070;50.922;5.430;2023-07-20T02:36:35;16.30;99.90
36002;DHT22;22070;50.922;5.430;2023-07-20T02:39:01;16.30;99.90
36002;DHT22;22070;50.922;5.430;2023-07-20T02:41:32;16.40;99.90
36002;DHT22;22070;50.922;5.430;2023-07-20T02:43:58;16.40;99.90
36002;DHT22;22070;50.922;5.430;2023-07-20T02:46:24;16.40;99.90
36002;DHT22;22070;50.922;5.430;2023-07-20T02:48:49;16.40;99.90
36002;DHT22;22070;50.922;5.430;2023-07-20T02:51:15;16.30;99.90
36002;DHT22;22070;50.922;5.430;2023-07-20T02:53:41;16.20;99.90
36002;DHT22;22070;50.922;5.430;2023-07-20T02:56:07;16.20;99.90
36002;DHT22;22070;50.922;5.430;2023-07-20T02:58:34;16.30;99.90
36002;DHT22;22070;50.922;5.430;2023-07-20T03:01:02;16.30;99.90
36002;DHT22;22070;50.922;5.430;2023-07-20T03:03:28;16.20;99.90
36002;DHT22;22070;50.922;5.430;2023-07-20T03:05:54;16.30;99.90
36002;DHT22;22070;50.922;5.430;2023-07-20T03:08:21;16.30;99.90
36002;DHT22;22070;50.922;5.430;2023-07-20T03:10:47;16.30;99.90
36002;DHT22;22070;50.922;5.430;2023-07-20T03:13:13;16.30;99.90
36002;DHT22;22070;50.922;5.430;2023-07-20T03:15:39;16.30;99.90
36002;DHT22;22070;50.922;5.430;2023-07-20T03:18:05;16.30;99.90
36002;DHT22;22070;50.922;5.430;2023-07-20T03:20:31;16.30;99.90
36002;DHT22;22070;50.922;5.430;2023-07-20T03:22:57;16.20;99.90
36002;DHT22;22070;50.922;5.430;2023-07-20T03:25:22;16.30;99.90
36002;DHT22;22070;50.922;5.430;2023-07-20T03:27:48;16.30;99.90
36002;DHT22;22070;50.922;5.430;2023-07-20T03:30:14;16.40;99.90
36002;DHT22;22070;50.922;5.430;2023-07-20T03:32:40;16.40;99.90
36002;DHT22;22070;50.922;5.430;2023-07-20T03:35:06;16.40;99.90
36002;DHT22;22070;50.922;5.430;2023-07-20T03:37:32;16.40;99.90
36002;DHT22;22070;50.922;5.430;2023-07-20T03:39:57;16.50;99.90
36002;DHT22;22070;50.922;5.430;2023-07-20T03:42:23;16.60;99.90
36002;DHT22;22070;50.922;5.430;2023-07-20T03:44:49;16.60;99.90
36002;DHT22;22070;50.922;5.430;2023-07-20T03:47:16;16.60;99.90
36002;DHT22;22070;50.922;5.430;2023-07-20T03:49:41;16.60;99.90
36002;DHT22;22070;50.922;5.430;2023-07-20T03:52:07;16.60;99.90
36002;DHT22;22070;50.922;5.430;2023-07-20T03:54:33;16.60;99.90
36002;DHT22;22070;50.922;5.430;2023-07-20T03:56:58;16.70;99.90
36002;DHT22;22070;50.922;5.430;2023-07-20T03:59:24;16.60;99.90
36002;DHT22;22070;50.922;5.430;2023-07-20T04:01:50;16.70;99.90
36002;DHT22;22070;50.922;5.430;2023-07-20T04:04:16;16.70;99.90
36002;DHT22;22070;50.922;5.430;2023-07-20T04:06:42;16.80;99.90
36002;DHT22;22070;50.922;5.430;2023-07-20T04:09:12;16.90;99.90
36002;DHT22;22070;50.922;5.430;2023-07-20T04:11:38;16.80;99.90
36002;DHT22;22070;50.922;5.430;2023-07-20T04:14:04;16.80;99.90
36002;DHT22;22070;50.922;5.430;2023-07-20T04:16:30;16.70;99.90
36002;DHT22;22070;50.922;5.430;2023-07-20T04:18:56;16.60;99.90
36002;DHT22;22070;50.922;5.430;2023-07-20T04:21:22;16.60;99.90
36002;DHT22;22070;50.922;5.430;2023-07-20T04:23:48;16.60;99.90
36002;DHT22;22070;50.922;5.430;2023-07-20T04:26:13;16.60;99.90
36002;DHT22;22070;50.922;5.430;2023-07-20T04:28:40;16.70;99.90
36002;DHT22;22070;50.922;5.430;2023-07-20T04:31:15;16.90;99.90
36002;DHT22;22070;50.922;5.430;2023-07-20T04:33:40;16.70;99.90
36002;DHT22;22070;50.922;5.430;2023-07-20T04:36:06;16.80;99.90
36002;DHT22;22070;50.922;5.430;2023-07-20T04:38:32;16.70;99.90
36002;DHT22;22070;50.922;5.430;2023-07-20T04:40:58;16.80;99.90
36002;DHT22;22070;50.922;5.430;2023-07-20T04:43:24;16.70;99.90
36002;DHT22;22070;50.922;5.430;2023-07-20T04:45:50;16.80;99.90
36002;DHT22;22070;50.922;5.430;2023-07-20T04:48:17;16.70;99.90
36002;DHT22;22070;50.922;5.430;2023-07-20T04:50:44;16.70;99.90
36002;DHT22;22070;50.922;5.430;2023-07-20T04:53:13;16.80;99.90
36002;DHT22;22070;50.922;5.430;2023-07-20T04:55:39;16.70;99.90
36002;DHT22;22070;50.922;5.430;2023-07-20T04:58:06;16.70;99.90
36002;DHT22;22070;50.922;5.430;2023-07-20T05:00:38;16.80;99.90
36002;DHT22;22070;50.922;5.430;2023-07-20T05:03:04;16.80;99.90
36002;DHT22;22070;50.922;5.430;2023-07-20T05:05:30;16.80;99.90
36002;DHT22;22070;50.922;5.430;2023-07-20T05:07:57;16.80;99.90
36002;DHT22;22070;50.922;5.430;2023-07-20T05:10:24;16.70;99.90
36002;DHT22;22070;50.922;5.430;2023-07-20T05:12:49;16.80;99.90
36002;DHT22;22070;50.922;5.430;2023-07-20T05:15:15;16.80;99.90
36002;DHT22;22070;50.922;5.430;2023-07-20T05:17:41;16.80;99.90
36002;DHT22;22070;50.922;5.430;2023-07-20T05:20:07;16.90;99.90
36002;DHT22;22070;50.922;5.430;2023-07-20T05:22:36;16.80;99.90
36002;DHT22;22070;50.922;5.430;2023-07-20T05:25:09;16.80;99.90
36002;DHT22;22070;50.922;5.430;2023-07-20T05:27:39;16.90;99.90
36002;DHT22;22070;50.922;5.430;2023-07-20T05:30:05;16.90;99.90
36002;DHT22;22070;50.922;5.430;2023-07-20T05:32:32;17.10;99.90
36002;DHT22;22070;50.922;5.430;2023-07-20T05:34:58;17.00;99.90
36002;DHT22;22070;50.922;5.430;2023-07-20T05:37:24;17.10;99.90
36002;DHT22;22070;50.922;5.430;2023-07-20T05:39:49;17.10;99.90
36002;DHT22;22070;50.922;5.430;2023-07-20T05:42:15;17.30;99.90
36002;DHT22;22070;50.922;5.430;2023-07-20T05:44:41;17.30;99.90
36002;DHT22;22070;50.922;5.430;2023-07-20T05:47:07;17.50;99.90
36002;DHT22;22070;50.922;5.430;2023-07-20T05:49:34;17.50;99.90
36002;DHT22;22070;50.922;5.430;2023-07-20T05:52:00;17.40;99.90
36002;DHT22;22070;50.922;5.430;2023-07-20T05:54:26;17.30;99.90
36002;DHT22;22070;50.922;5.430;2023-07-20T05:56:52;17.30;99.90
36002;DHT22;22070;50.922;5.430;2023-07-20T05:59:19;17.30;99.90
36002;DHT22;22070;50.922;5.430;2023-07-20T06:01:49;17.20;99.90
36002;DHT22;22070;50.922;5.430;2023-07-20T06:04:15;17.10;99.90
36002;DHT22;22070;50.922;5.430;2023-07-20T06:06:41;17.20;99.90
36002;DHT22;22070;50.922;5.430;2023-07-20T06:09:07;17.20;99.90
36002;DHT22;22070;50.922;5.430;2023-07-20T06:11:39;17.40;99.90
36002;DHT22;22070;50.922;5.430;2023-07-20T06:14:05;17.40;99.90
36002;DHT22;22070;50.922;5.430;2023-07-20T06:16:31;17.40;99.90
36002;DHT22;22070;50.922;5.430;2023-07-20T06:18:58;17.60;99.90
36002;DHT22;22070;50.922;5.430;2023-07-20T06:21:23;17.60;99.90
36002;DHT22;22070;50.922;5.430;2023-07-20T06:23:49;17.60;99.90
36002;DHT22;22070;50.922;5.430;2023-07-20T06:26:15;17.60;99.90
36002;DHT22;22070;50.922;5.430;2023-07-20T06:28:41;17.60;99.90
36002;DHT22;22070;50.922;5.430;2023-07-20T06:31:06;17.70;99.90
36002;DHT22;22070;50.922;5.430;2023-07-20T06:33:32;17.90;99.90
36002;DHT22;22070;50.922;5.430;2023-07-20T06:35:58;18.00;99.90
36002;DHT22;22070;50.922;5.430;2023-07-20T06:38:23;18.00;99.90
36002;DHT22;22070;50.922;5.430;2023-07-20T06:40:50;18.00;99.90
36002;DHT22;22070;50.922;5.430;2023-07-20T06:43:16;18.10;99.90
36002;DHT22;22070;50.922;5.430;2023-07-20T06:45:42;18.10;99.90
36002;DHT22;22070;50.922;5.430;2023-07-20T06:48:08;18.00;99.90
36002;DHT22;22070;50.922;5.430;2023-07-20T06:50:34;18.00;99.90
36002;DHT22;22070;50.922;5.430;2023-07-20T06:53:00;18.10;99.90
36002;DHT22;22070;50.922;5.430;2023-07-20T06:55:28;18.00;99.90
36002;DHT22;22070;50.922;5.430;2023-07-20T06:57:54;18.00;99.90
36002;DHT22;22070;50.922;5.430;2023-07-20T07:00:20;18.00;99.90
36002;DHT22;22070;50.922;5.430;2023-07-20T07:02:46;18.10;99.90
36002;DHT22;22070;50.922;5.430;2023-07-20T07:05:11;18.20;99.90
36002;DHT22;22070;50.922;5.430;2023-07-20T07:07:39;18.20;99.90
36002;DHT22;22070;50.922;5.430;2023-07-20T07:10:05;18.20;99.90
36002;DHT22;22070;50.922;5.430;2023-07-20T07:12:31;18.20;99.90
36002;DHT22;22070;50.922;5.430;2023-07-20T07:14:57;18.40;99.90
36002;DHT22;22070;50.922;5.430;2023-07-20T07:17:22;18.40;99.90
36002;DHT22;22070;50.922;5.430;2023-07-20T07:19:48;18.60;99.90
36002;DHT22;22070;50.922;5.430;2023-07-20T07:22:13;18.70;99.90
36002;DHT22;22070;50.922;5.430;2023-07-20T07:24:39;18.80;99.90
36002;DHT22;22070;50.922;5.430;2023-07-20T07:27:08;18.80;99.90
36002;DHT22;22070;50.922;5.430;2023-07-20T07:29:34;18.80;99.90
36002;DHT22;22070;50.922;5.430;2023-07-20T07:32:00;18.70;99.90
36002;DHT22;22070;50.922;5.430;2023-07-20T07:34:27;18.90;99.90
36002;DHT22;22070;50.922;5.430;2023-07-20T07:36:53;18.90;99.90
36002;DHT22;22070;50.922;5.430;2023-07-20T07:39:19;18.90;99.90
36002;DHT22;22070;50.922;5.430;2023-07-20T07:41:44;19.00;99.90
36002;DHT22;22070;50.922;5.430;2023-07-20T07:44:10;18.70;99.90
36002;DHT22;22070;50.922;5.430;2023-07-20T07:46:36;18.80;99.90
36002;DHT22;22070;50.922;5.430;2023-07-20T07:49:01;18.90;99.90
36002;DHT22;22070;50.922;5.430;2023-07-20T07:51:27;19.00;99.90
36002;DHT22;22070;50.922;5.430;2023-07-20T07:53:53;19.10;99.90
36002;DHT22;22070;50.922;5.430;2023-07-20T07:56:18;19.00;99.90
36002;DHT22;22070;50.922;5.430;2023-07-20T07:58:49;19.00;99.90
36002;DHT22;22070;50.922;5.430;2023-07-20T08:01:15;19.00;99.90
36002;DHT22;22070;50.922;5.430;2023-07-20T08:03:40;19.10;99.90
36002;DHT22;22070;50.922;5.430;2023-07-20T08:06:06;19.00;99.90
36002;DHT22;22070;50.922;5.430;2023-07-20T08:08:32;19.20;99.90
36002;DHT22;22070;50.922;5.430;2023-07-20T08:10:58;19.20;99.90
36002;DHT22;22070;50.922;5.430;2023-07-20T08:13:24;19.20;99.90
36002;DHT22;22070;50.922;5.430;2023-07-20T08:15:51;19.30;99.90
36002;DHT22;22070;50.922;5.430;2023-07-20T08:18:17;19.30;99.90
36002;DHT22;22070;50.922;5.430;2023-07-20T08:20:46;19.20;99.90
36002;DHT22;22070;50.922;5.430;2023-07-20T08:23:12;19.30;99.90
36002;DHT22;22070;50.922;5.430;2023-07-20T08:25:39;19.40;99.90
36002;DHT22;22070;50.922;5.430;2023-07-20T08:28:07;19.40;99.90
36002;DHT22;22070;50.922;5.430;2023-07-20T08:30:42;19.80;99.90
36002;DHT22;22070;50.922;5.430;2023-07-20T08:33:10;19.70;99.90
36002;DHT22;22070;50.922;5.430;2023-07-20T08:35:35;19.90;99.90
36002;DHT22;22070;50.922;5.430;2023-07-20T08:38:01;19.90;99.90
36002;DHT22;22070;50.922;5.430;2023-07-20T08:40:27;20.00;99.90
36002;DHT22;22070;50.922;5.430;2023-07-20T08:42:54;20.20;99.90
36002;DHT22;22070;50.922;5.430;2023-07-20T08:45:22;20.20;99.90
36002;DHT22;22070;50.922;5.430;2023-07-20T08:47:48;20.10;99.90
36002;DHT22;22070;50.922;5.430;2023-07-20T08:50:16;20.20;99.90
36002;DHT22;22070;50.922;5.430;2023-07-20T08:52:42;20.20;99.90
36002;DHT22;22070;50.922;5.430;2023-07-20T08:55:08;20.10;99.90
36002;DHT22;22070;50.922;5.430;2023-07-20T08:57:34;20.10;99.90
36002;DHT22;22070;50.922;5.430;2023-07-20T09:00:02;19.90;99.90
36002;DHT22;22070;50.922;5.430;2023-07-20T09:02:31;19.90;99.90
36002;DHT22;22070;50.922;5.430;2023-07-20T09:05:00;20.00;99.90
36002;DHT22;22070;50.922;5.430;2023-07-20T09:07:26;20.00;99.90
36002;DHT22;22070;50.922;5.430;2023-07-20T09:09:52;20.20;99.90
36002;DHT22;22070;50.922;5.430;2023-07-20T09:12:17;20.30;99.90
36002;DHT22;22070;50.922;5.430;2023-07-20T09:14:43;20.30;99.90
36002;DHT22;22070;50.922;5.430;2023-07-20T09:17:13;20.30;99.90
36002;DHT22;22070;50.922;5.430;2023-07-20T09:19:45;20.40;99.90
36002;DHT22;22070;50.922;5.430;2023-07-20T09:22:11;20.30;99.90
36002;DHT22;22070;50.922;5.430;2023-07-20T09:24:37;20.30;99.90
36002;DHT22;22070;50.922;5.430;2023-07-20T09:27:02;20.30;99.90
36002;DHT22;22070;50.922;5.430;2023-07-20T09:29:29;20.60;99.90
36002;DHT22;22070;50.922;5.430;2023-07-20T09:32:03;20.50;99.90
36002;DHT22;22070;50.922;5.430;2023-07-20T09:34:32;20.60;99.90
36002;DHT22;22070;50.922;5.430;2023-07-20T09:36:58;20.60;99.90
36002;DHT22;22070;50.922;5.430;2023-07-20T09:39:24;20.70;99.90
36002;DHT22;22070;50.922;5.430;2023-07-20T09:41:51;20.80;99.90
36002;DHT22;22070;50.922;5.430;2023-07-20T09:44:17;20.90;99.90
36002;DHT22;22070;50.922;5.430;2023-07-20T09:46:51;20.80;99.90
36002;DHT22;22070;50.922;5.430;2023-07-20T09:49:18;20.90;99.90
36002;DHT22;22070;50.922;5.430;2023-07-20T09:51:47;20.90;99.90
36002;DHT22;22070;50.922;5.430;2023-07-20T09:54:14;20.90;99.90
36002;DHT22;22070;50.922;5.430;2023-07-20T09:56:42;21.10;99.90
36002;DHT22;22070;50.922;5.430;2023-07-20T09:59:08;21.20;99.90
36002;DHT22;22070;50.922;5.430;2023-07-20T10:01:34;21.20;99.90
36002;DHT22;22070;50.922;5.430;2023-07-20T10:04:01;21.10;99.90
36002;DHT22;22070;50.922;5.430;2023-07-20T10:06:29;21.20;99.90
36002;DHT22;22070;50.922;5.430;2023-07-20T10:08:57;21.10;99.90
36002;DHT22;22070;50.922;5.430;2023-07-20T10:11:27;21.20;99.90
36002;DHT22;22070;50.922;5.430;2023-07-20T10:13:58;21.40;99.90
36002;DHT22;22070;50.922;5.430;2023-07-20T10:16:36;21.50;99.90
36002;DHT22;22070;50.922;5.430;2023-07-20T10:19:11;21.60;99.90
36002;DHT22;22070;50.922;5.430;2023-07-20T10:21:42;21.70;99.90
36002;DHT22;22070;50.922;5.430;2023-07-20T10:24:09;21.70;99.90
36002;DHT22;22070;50.922;5.430;2023-07-20T10:26:36;21.70;99.90
36002;DHT22;22070;50.922;5.430;2023-07-20T10:29:02;21.70;99.90
36002;DHT22;22070;50.922;5.430;2023-07-20T10:31:29;21.70;99.90
36002;DHT22;22070;50.922;5.430;2023-07-20T10:33:57;21.70;99.90
36002;DHT22;22070;50.922;5.430;2023-07-20T10:36:26;21.70;99.90
36002;DHT22;22070;50.922;5.430;2023-07-20T10:38:57;21.80;99.90
36002;DHT22;22070;50.922;5.430;2023-07-20T10:41:27;21.80;99.90
36002;DHT22;22070;50.922;5.430;2023-07-20T10:44:02;21.90;99.90
36002;DHT22;22070;50.922;5.430;2023-07-20T10:49:10;22.00;99.90
36002;DHT22;22070;50.922;5.430;2023-07-20T10:51:44;21.90;99.90
36002;DHT22;22070;50.922;5.430;2023-07-20T10:56:44;22.00;99.90
36002;DHT22;22070;50.922;5.430;2023-07-20T11:01:47;22.00;99.90
36002;DHT22;22070;50.922;5.430;2023-07-20T11:04:14;22.10;99.90
36002;DHT22;22070;50.922;5.430;2023-07-20T11:06:44;22.00;99.90
36002;DHT22;22070;50.922;5.430;2023-07-20T11:09:13;22.30;99.90
36002;DHT22;22070;50.922;5.430;2023-07-20T11:11:41;22.50;99.90
36002;DHT22;22070;50.922;5.430;2023-07-20T11:14:20;22.40;99.90
36002;DHT22;22070;50.922;5.430;2023-07-20T11:16:48;22.60;99.90
36002;DHT22;22070;50.922;5.430;2023-07-20T11:21:45;23.00;99.90
36002;DHT22;22070;50.922;5.430;2023-07-20T11:24:11;23.00;99.90
36002;DHT22;22070;50.922;5.430;2023-07-20T11:26:52;22.90;99.90
36002;DHT22;22070;50.922;5.430;2023-07-20T11:29:22;22.70;99.90
36002;DHT22;22070;50.922;5.430;2023-07-20T11:31:49;22.70;99.90
36002;DHT22;22070;50.922;5.430;2023-07-20T11:34:21;22.90;99.90
36002;DHT22;22070;50.922;5.430;2023-07-20T11:36:49;22.90;99.90
36002;DHT22;22070;50.922;5.430;2023-07-20T11:39:20;23.00;99.90
36002;DHT22;22070;50.922;5.430;2023-07-20T11:41:47;23.00;99.90
36002;DHT22;22070;50.922;5.430;2023-07-20T11:44:13;23.20;99.90
36002;DHT22;22070;50.922;5.430;2023-07-20T11:46:41;23.30;99.90
36002;DHT22;22070;50.922;5.430;2023-07-20T11:49:08;23.10;99.90
36002;DHT22;22070;50.922;5.430;2023-07-20T11:51:34;23.30;99.90
36002;DHT22;22070;50.922;5.430;2023-07-20T11:54:01;23.40;99.90
36002;DHT22;22070;50.922;5.430;2023-07-20T11:56:27;23.30;99.90
36002;DHT22;22070;50.922;5.430;2023-07-20T11:59:00;23.30;99.90
36002;DHT22;22070;50.922;5.430;2023-07-20T12:01:28;23.30;99.90
36002;DHT22;22070;50.922;5.430;2023-07-20T12:03:59;23.30;99.90
36002;DHT22;22070;50.922;5.430;2023-07-20T12:06:28;23.50;99.90
36002;DHT22;22070;50.922;5.430;2023-07-20T12:08:56;23.40;99.90
36002;DHT22;22070;50.922;5.430;2023-07-20T12:11:36;23.60;99.90
36002;DHT22;22070;50.922;5.430;2023-07-20T12:14:09;23.70;99.90
36002;DHT22;22070;50.922;5.430;2023-07-20T12:16:36;23.90;99.90
36002;DHT22;22070;50.922;5.430;2023-07-20T12:21:31;24.50;99.90
36002;DHT22;22070;50.922;5.430;2023-07-20T12:23:58;24.50;99.90
36002;DHT22;22070;50.922;5.430;2023-07-20T12:26:24;24.50;99.90
36002;DHT22;22070;50.922;5.430;2023-07-20T12:28:50;24.10;99.90
36002;DHT22;22070;50.922;5.430;2023-07-20T12:31:16;24.20;99.90
36002;DHT22;22070;50.922;5.430;2023-07-20T12:33:42;24.10;99.90
36002;DHT22;22070;50.922;5.430;2023-07-20T12:36:09;24.10;99.90
36002;DHT22;22070;50.922;5.430;2023-07-20T12:38:35;24.10;99.90
36002;DHT22;22070;50.922;5.430;2023-07-20T12:41:02;24.40;99.90
36002;DHT22;22070;50.922;5.430;2023-07-20T12:43:27;24.30;99.90
36002;DHT22;22070;50.922;5.430;2023-07-20T12:45:53;24.30;99.90
36002;DHT22;22070;50.922;5.430;2023-07-20T12:48:20;24.50;99.90
36002;DHT22;22070;50.922;5.430;2023-07-20T12:50:46;24.50;99.90
36002;DHT22;22070;50.922;5.430;2023-07-20T12:53:12;24.70;99.90
36002;DHT22;22070;50.922;5.430;2023-07-20T12:55:38;24.80;99.90
36002;DHT22;22070;50.922;5.430;2023-07-20T12:58:05;24.80;99.90
36002;DHT22;22070;50.922;5.430;2023-07-20T13:00:31;24.90;99.90
36002;DHT22;22070;50.922;5.430;2023-07-20T13:02:57;25.10;99.90
36002;DHT22;22070;50.922;5.430;2023-07-20T13:05:23;25.00;99.90
36002;DHT22;22070;50.922;5.430;2023-07-20T13:07:49;24.60;99.90
36002;DHT22;22070;50.922;5.430;2023-07-20T13:10:15;24.80;99.90
36002;DHT22;22070;50.922;5.430;2023-07-20T13:12:41;24.90;99.90
36002;DHT22;22070;50.922;5.430;2023-07-20T13:15:08;24.80;99.90
36002;DHT22;22070;50.922;5.430;2023-07-20T13:17:35;25.00;99.90
36002;DHT22;22070;50.922;5.430;2023-07-20T13:20:02;25.20;99.90
36002;DHT22;22070;50.922;5.430;2023-07-20T13:22:30;25.30;99.90
36002;DHT22;22070;50.922;5.430;2023-07-20T13:24:56;25.40;99.90
36002;DHT22;22070;50.922;5.430;2023-07-20T13:27:21;25.40;99.90
36002;DHT22;22070;50.922;5.430;2023-07-20T13:29:47;25.50;99.90
36002;DHT22;22070;50.922;5.430;2023-07-20T13:32:14;25.40;99.90
36002;DHT22;22070;50.922;5.430;2023-07-20T13:34:41;25.10;99.90
36002;DHT22;22070;50.922;5.430;2023-07-20T13:37:07;25.00;99.90
36002;DHT22;22070;50.922;5.430;2023-07-20T13:39:33;25.00;99.90
36002;DHT22;22070;50.922;5.430;2023-07-20T13:41:59;24.90;99.90
36002;DHT22;22070;50.922;5.430;2023-07-20T13:44:26;24.90;99.90
36002;DHT22;22070;50.922;5.430;2023-07-20T13:46:52;25.10;99.90
36002;DHT22;22070;50.922;5.430;2023-07-20T13:49:18;25.00;99.90
36002;DHT22;22070;50.922;5.430;2023-07-20T13:51:44;25.10;99.90
36002;DHT22;22070;50.922;5.430;2023-07-20T13:54:11;25.30;99.90
36002;DHT22;22070;50.922;5.430;2023-07-20T13:56:37;25.60;99.90
36002;DHT22;22070;50.922;5.430;2023-07-20T13:59:03;25.80;99.90
36002;DHT22;22070;50.922;5.430;2023-07-20T14:01:29;25.90;99.90
36002;DHT22;22070;50.922;5.430;2023-07-20T14:03:56;26.10;99.90
36002;DHT22;22070;50.922;5.430;2023-07-20T14:06:22;26.30;99.90
36002;DHT22;22070;50.922;5.430;2023-07-20T14:08:48;26.30;99.90
36002;DHT22;22070;50.922;5.430;2023-07-20T14:11:15;26.40;99.90
36002;DHT22;22070;50.922;5.430;2023-07-20T14:13:41;26.40;99.90
36002;DHT22;22070;50.922;5.430;2023-07-20T14:16:07;26.50;99.90
36002;DHT22;22070;50.922;5.430;2023-07-20T14:18:33;26.60;99.90
36002;DHT22;22070;50.922;5.430;2023-07-20T14:20:59;26.60;99.90
36002;DHT22;22070;50.922;5.430;2023-07-20T14:23:24;26.40;99.90
36002;DHT22;22070;50.922;5.430;2023-07-20T14:25:50;26.20;99.90
36002;DHT22;22070;50.922;5.430;2023-07-20T14:28:16;26.10;99.90
36002;DHT22;22070;50.922;5.430;2023-07-20T14:30:42;26.40;99.90
36002;DHT22;22070;50.922;5.430;2023-07-20T14:33:08;26.40;99.90
36002;DHT22;22070;50.922;5.430;2023-07-20T14:35:34;26.30;99.90
36002;DHT22;22070;50.922;5.430;2023-07-20T14:38:00;26.20;99.90
36002;DHT22;22070;50.922;5.430;2023-07-20T14:40:26;26.10;99.90
36002;DHT22;22070;50.922;5.430;2023-07-20T14:42:52;26.30;99.90
36002;DHT22;22070;50.922;5.430;2023-07-20T14:45:18;26.40;99.90
36002;DHT22;22070;50.922;5.430;2023-07-20T14:47:44;26.60;99.90
36002;DHT22;22070;50.922;5.430;2023-07-20T14:50:10;26.70;99.90
36002;DHT22;22070;50.922;5.430;2023-07-20T14:52:36;26.80;99.90
36002;DHT22;22070;50.922;5.430;2023-07-20T14:55:02;26.60;99.90
36002;DHT22;22070;50.922;5.430;2023-07-20T14:57:28;26.70;99.90
36002;DHT22;22070;50.922;5.430;2023-07-20T14:59:54;27.00;99.90
36002;DHT22;22070;50.922;5.430;2023-07-20T15:02:20;27.10;99.90
36002;DHT22;22070;50.922;5.430;2023-07-20T15:04:49;27.10;99.90
36002;DHT22;22070;50.922;5.430;2023-07-20T15:07:21;27.30;99.90
36002;DHT22;22070;50.922;5.430;2023-07-20T15:09:47;27.60;99.90
36002;DHT22;22070;50.922;5.430;2023-07-20T15:12:13;27.80;99.90
36002;DHT22;22070;50.922;5.430;2023-07-20T15:14:43;27.80;99.90
36002;DHT22;22070;50.922;5.430;2023-07-20T15:17:10;27.80;99.90
36002;DHT22;22070;50.922;5.430;2023-07-20T15:19:36;27.70;99.90
36002;DHT22;22070;50.922;5.430;2023-07-20T15:22:02;27.60;99.90
36002;DHT22;22070;50.922;5.430;2023-07-20T15:24:29;27.40;99.90
36002;DHT22;22070;50.922;5.430;2023-07-20T15:26:55;27.00;99.90
36002;DHT22;22070;50.922;5.430;2023-07-20T15:29:20;26.70;99.90
36002;DHT22;22070;50.922;5.430;2023-07-20T15:31:47;26.80;99.90
36002;DHT22;22070;50.922;5.430;2023-07-20T15:34:13;26.80;99.90
36002;DHT22;22070;50.922;5.430;2023-07-20T15:36:40;26.80;99.90
36002;DHT22;22070;50.922;5.430;2023-07-20T15:39:07;26.70;99.90
36002;DHT22;22070;50.922;5.430;2023-07-20T15:41:33;26.60;99.90
36002;DHT22;22070;50.922;5.430;2023-07-20T15:43:59;26.50;99.90
36002;DHT22;22070;50.922;5.430;2023-07-20T15:49:06;26.30;99.90
36002;DHT22;22070;50.922;5.430;2023-07-20T15:51:33;26.20;99.90